Weather reports worldwide

Advertisment
Monks wood, United Kingdom (99078): temperature & dewpoint: 12.07.2018 09:00:00 - 18.07.2018 09:00:00 (BST)Monks wood, United Kingdom (99078): temperature -20cm & temperature -100cm: 12.07.2018 09:00:00 - 18.07.2018 09:00:00 (BST)Monks wood, United Kingdom (99078): wind speed: 12.07.2018 09:00:00 - 18.07.2018 09:00:00 (BST)Monks wood, United Kingdom (99078): wind direction: 12.07.2018 09:00:00 - 18.07.2018 09:00:00 (BST)Monks wood, United Kingdom (99078): precipitation: 12.07.2018 09:00:00 - 18.07.2018 09:00:00 (BST)
Date & Time tt [°C] td [°C] tt -20cm [°C] tt -100cm [°C] ff [km/h] ff [kn] dd rr [mm]
18.07.2018 09:00:00 19,0 10,7 - - 5 3 S 0,0
18.07.2018 08:00:00 16,0 12,6 - - 0 0 N 0,0
18.07.2018 07:00:00 13,2 12,3 - - 4 2 SSW 0,0
18.07.2018 06:00:00 10,6 10,0 - - 4 2 WSW 0,0
18.07.2018 05:00:00 10,0 8,8 - - 2 1 WSW 0,0
18.07.2018 04:00:00 11,1 9,0 - - 2 1 SW 0,0
18.07.2018 03:00:00 14,2 9,9 - - 5 3 W 0,0
18.07.2018 02:00:00 13,7 9,8 - - 8 4 WSW 0,0
18.07.2018 01:00:00 14,1 9,5 - - 9 5 SW 0,0
18.07.2018 00:00:00 16,2 10,1 - - 9 5 SW 0,0
17.07.2018 23:00:00 17,2 11,2 - - 5 3 WSW 0,0
17.07.2018 22:00:00 16,5 10,8 - - 4 2 SW 0,0
17.07.2018 21:00:00 18,8 10,0 - - 4 2 WSW 0,0
17.07.2018 20:00:00 20,9 9,5 - - 11 6 WSW 0,0
17.07.2018 19:00:00 22,7 10,3 - - 8 4 W 0,0
17.07.2018 18:00:00 22,0 9,3 - - 13 7 SW 0,0
17.07.2018 17:00:00 22,0 8,8 - - 11 6 WSW 0,0
17.07.2018 16:00:00 22,6 8,7 - - 15 8 SW 0,0
17.07.2018 15:00:00 21,8 9,2 - - 8 4 W 0,0
17.07.2018 14:00:00 22,2 10,2 - - 9 5 W 0,0
17.07.2018 13:00:00 22,7 10,4 - - 13 7 WSW 0,0
17.07.2018 12:00:00 21,9 10,6 - - 9 5 W 0,0
17.07.2018 11:00:00 20,3 10,0 - - 9 5 W 0,0
17.07.2018 10:00:00 19,8 10,9 17,7 16,2 11 6 W 0,0
17.07.2018 09:00:00 18,1 10,0 - - 9 5 W 0,0
17.07.2018 08:00:00 16,5 11,1 - - 8 4 W 0,0
17.07.2018 07:00:00 14,2 11,9 - - 9 5 WSW 0,0
17.07.2018 06:00:00 12,8 11,5 - - 9 5 WSW 0,0
17.07.2018 05:00:00 13,6 12,1 - - 8 4 W 0,0
17.07.2018 04:00:00 14,3 12,3 - - 11 6 WSW 0,0
17.07.2018 03:00:00 15,9 13,4 - - 11 6 W 0,0
17.07.2018 02:00:00 16,2 12,5 - - 9 5 SW 0,0
17.07.2018 01:00:00 17,7 12,7 - - 9 5 WSW 0,0
17.07.2018 00:00:00 18,6 13,9 - - 11 6 WSW 0,0
16.07.2018 23:00:00 19,4 12,8 - - 9 5 WSW 0,0
16.07.2018 22:00:00 20,5 13,0 - - 9 5 WSW 0,0
16.07.2018 21:00:00 22,1 9,8 - - 5 3 WSW 0,0
16.07.2018 20:00:00 25,4 9,8 - - 9 5 WSW 0,0
16.07.2018 19:00:00 27,3 8,8 - - 9 5 SW 0,0
16.07.2018 18:00:00 27,4 8,3 - - 11 6 SW 0,0
16.07.2018 17:00:00 26,6 9,5 - - 11 6 WSW 0,0
16.07.2018 16:00:00 27,1 9,3 - - 9 5 WSW 0,0
16.07.2018 15:00:00 27,0 8,6 - - 8 4 SSW 0,0
16.07.2018 14:00:00 27,0 11,0 - - 8 4 WSW 0,0
16.07.2018 13:00:00 27,1 12,4 - - 9 5 WSW 0,0
16.07.2018 12:00:00 26,0 12,5 - - 9 5 WSW 0,0
16.07.2018 11:00:00 26,0 13,6 - - 8 4 S 0,0
16.07.2018 10:00:00 24,9 13,8 17,7 16,2 5 3 SW 0,0
16.07.2018 09:00:00 22,9 14,5 - - 4 2 W 0,0
16.07.2018 08:00:00 20,7 14,5 - - 2 1 WNW 0,0
16.07.2018 07:00:00 16,3 13,7 - - 2 1 SW 0,0
16.07.2018 06:00:00 14,1 11,9 - - 5 3 WSW 0,0
16.07.2018 05:00:00 15,3 12,1 - - 4 2 WNW 0,0
16.07.2018 04:00:00 14,8 11,8 - - 4 2 W 0,0
16.07.2018 03:00:00 14,8 11,1 - - 4 2 WSW 0,0
16.07.2018 02:00:00 15,7 10,9 - - 5 3 WSW 0,0
16.07.2018 01:00:00 17,0 10,4 - - 5 3 SW 0,0
16.07.2018 00:00:00 18,5 9,9 - - 5 3 SW 0,0
15.07.2018 23:00:00 21,0 9,6 - - 5 3 WSW 0,0
15.07.2018 22:00:00 22,1 9,7 - - 5 3 WSW 0,0
15.07.2018 21:00:00 23,7 10,2 - - 5 3 W 0,0
15.07.2018 20:00:00 25,7 9,5 - - 5 3 WSW 0,0
15.07.2018 19:00:00 27,9 8,7 - - 9 5 SW 0,0
15.07.2018 18:00:00 28,2 9,0 - - 9 5 SW 0,0
15.07.2018 17:00:00 29,0 9,8 - - 9 5 SW 0,0
15.07.2018 16:00:00 28,7 9,8 - - 9 5 WSW 0,0
15.07.2018 15:00:00 27,4 9,8 - - 11 6 SSW 0,0
15.07.2018 14:00:00 27,3 10,5 - - 11 6 S 0,0
15.07.2018 13:00:00 26,9 9,4 - - 9 5 S 0,0
15.07.2018 12:00:00 26,3 12,1 - - 11 6 SSW 0,0
15.07.2018 11:00:00 24,7 12,5 - - 11 6 SSW 0,0
15.07.2018 10:00:00 23,5 13,8 17,4 16,2 5 3 SSW 0,0
15.07.2018 09:00:00 21,6 14,7 - - 4 2 W 0,0
15.07.2018 08:00:00 18,5 13,8 - - 5 3 WSW 0,0
15.07.2018 07:00:00 15,5 13,7 - - 5 3 SW 0,0
15.07.2018 06:00:00 12,3 11,3 - - 5 3 SSW 0,0
15.07.2018 05:00:00 12,5 11,0 - - 5 3 SSW 0,0
15.07.2018 04:00:00 13,5 11,6 - - 5 3 SSW 0,0
15.07.2018 03:00:00 13,6 11,7 - - 4 2 SSW 0,0
15.07.2018 02:00:00 14,2 12,2 - - 5 3 SW 0,0
15.07.2018 01:00:00 15,4 11,8 - - 5 3 SSW 0,0
15.07.2018 00:00:00 18,2 12,2 - - 8 4 SSW 0,0
14.07.2018 23:00:00 20,3 12,6 - - 9 5 S 0,0
14.07.2018 22:00:00 22,0 12,6 - - 8 4 SSE 0,0
14.07.2018 21:00:00 24,4 12,5 - - 5 3 S 0,0
14.07.2018 20:00:00 25,3 11,7 - - 5 3 SSW 0,0
14.07.2018 19:00:00 25,9 11,4 - - 8 4 SSW 0,0
14.07.2018 18:00:00 27,2 11,3 - - 13 7 SW 0,0
14.07.2018 17:00:00 27,1 11,2 - - 13 7 SSW 0,0
14.07.2018 16:00:00 26,6 12,5 - - 9 5 SW 0,0
14.07.2018 15:00:00 26,4 13,0 - - 9 5 S 0,0
14.07.2018 14:00:00 25,9 12,2 - - 13 7 S 0,0
14.07.2018 13:00:00 26,1 14,2 - - 9 5 SSW 0,0
14.07.2018 12:00:00 25,2 12,7 - - 11 6 S 0,0
14.07.2018 11:00:00 23,5 14,0 - - 8 4 SSW 0,0
14.07.2018 10:00:00 22,2 15,3 17,0 16,2 4 2 SW 0,0
14.07.2018 09:00:00 19,9 15,1 - - 8 4 SSW 0,0
14.07.2018 08:00:00 16,6 14,0 - - 9 5 SSW 0,0
14.07.2018 07:00:00 14,6 13,1 - - 9 5 SSW 0,0
14.07.2018 06:00:00 12,8 12,1 - - 5 3 S 0,0
14.07.2018 05:00:00 13,1 12,2 - - 8 4 S 0,0
14.07.2018 04:00:00 12,5 11,8 - - 4 2 S 0,0
14.07.2018 03:00:00 13,2 11,8 - - 4 2 SSE 0,0
14.07.2018 02:00:00 14,2 12,3 - - 5 3 S 0,0
14.07.2018 01:00:00 14,8 12,5 - - 5 3 SSE 0,0
14.07.2018 00:00:00 15,9 12,8 - - 8 4 SSE 0,0
13.07.2018 23:00:00 16,4 13,6 - - 5 3 S 0,0
13.07.2018 22:00:00 16,9 13,0 - - 4 2 ENE 0,0
13.07.2018 21:00:00 18,8 12,8 - - 4 2 NE 0,0
13.07.2018 20:00:00 21,3 11,7 - - 8 4 ENE 0,0
13.07.2018 19:00:00 22,9 11,9 - - 5 3 NE 0,0
13.07.2018 18:00:00 23,3 11,9 - - 8 4 NE 0,0
13.07.2018 17:00:00 23,3 12,5 - - 5 3 NNE 0,0
13.07.2018 16:00:00 23,2 12,3 - - 4 2 NNE 0,0
13.07.2018 15:00:00 22,1 13,0 - - 8 4 NNE 0,0
13.07.2018 14:00:00 21,5 13,1 - - 8 4 ENE 0,0
13.07.2018 13:00:00 20,1 12,6 - - 8 4 NE 0,0
13.07.2018 12:00:00 19,1 12,3 - - 8 4 ENE 0,0
13.07.2018 11:00:00 17,7 12,5 - - 5 3 NNE 0,0
13.07.2018 10:00:00 16,8 11,9 16,9 16,2 8 4 NE 0,0
13.07.2018 09:00:00 16,4 12,9 - - 5 3 ENE 0,0
13.07.2018 08:00:00 14,1 13,2 - - 2 1 NE 0,0
13.07.2018 07:00:00 13,1 13,1 - - 2 1 S 0,0
13.07.2018 06:00:00 11,8 11,8 - - 4 2 S 0,0
13.07.2018 05:00:00 9,8 9,8 - - 2 1 SE 0,0
13.07.2018 04:00:00 8,3 8,1 - - 2 1 ESE 0,0
13.07.2018 03:00:00 8,9 8,8 - - 2 1 N 0,0
13.07.2018 02:00:00 9,3 9,0 - - 0 0 N 0,0
13.07.2018 01:00:00 10,0 9,3 - - 2 1 ENE 0,0
13.07.2018 00:00:00 11,8 10,6 - - 4 2 ENE 0,0
12.07.2018 23:00:00 12,6 10,9 - - 4 2 NE 0,0
12.07.2018 22:00:00 14,1 11,3 - - 5 3 NE 0,0
12.07.2018 21:00:00 15,9 11,6 - - 8 4 NE 0,0
12.07.2018 20:00:00 18,2 12,1 - - 8 4 NE 0,0
12.07.2018 19:00:00 20,2 12,4 - - 8 4 ENE 0,0
12.07.2018 18:00:00 21,0 12,7 - - 8 4 ENE 0,0
12.07.2018 17:00:00 21,3 13,1 - - 9 5 NE 0,0
12.07.2018 16:00:00 20,8 12,9 - - 8 4 NNE 0,0
12.07.2018 15:00:00 20,5 13,6 - - 8 4 ENE 0,0
12.07.2018 14:00:00 18,6 12,7 - - 8 4 NE 0,0
12.07.2018 13:00:00 16,5 12,2 - - 5 3 NNE 0,0
12.07.2018 12:00:00 16,1 12,4 - - 5 3 NE 0,0
12.07.2018 11:00:00 15,2 11,8 - - 5 3 NNE 0,0
12.07.2018 10:00:00 14,9 12,0 17,2 16,2 5 3 NNE 0,0
12.07.2018 09:00:00 14,4 11,6 - - 5 3 NNE 0,0

tt = temperature
td = dewpoint
tt -20cm = temperature -20cm
tt -100cm = temperature -100cm
ff = wind speed
dd = wind direction
rr = precipitation

Next stations